Orto / Ocaso: 06:05 / 18:36 UTC (Datos para LEAX 29-03-2020)

[fuente: ADDS]

METAR:


LEMG 291500Z 16009KT 100V200 9999 FEW040 18/11 Q1016 NOSIG =
TAF LEMG 291100Z 2912/3012 14008KT CAVOK TX18/2913Z TN11/3006Z BECMG 2919/2921 29006KT BECMG 3010/3012 16006KT LEGR 291500Z 29004KT 230V010 9999 FEW050 19/03 Q1016 =
TAF LEGR 291400Z 2915/3015 29006KT 9999 FEW040 TX18/2915Z TN06/3007Z LEZL 291500Z 22005KT 9999 SCT049 21/07 Q1016 NOSIG =
TAF LEZL 291400Z 2915/3015 22008KT 9999 FEW040 TX21/2915Z TN11/3007Z TEMPO 3002/3009 3000 BR BKN006 LEAM 291500Z 20010KT 9999 FEW035 18/10 Q1017 =
TAF LEAM 291400Z 2915/3015 22010KT 9999 FEW040 TX19/3014Z TN11/3006Z BECMG 2919/2921 34006KT BECMG 3008/3009 22010KT LEBA 291500Z 25003KT 170V310 9999 FEW045 21/07 Q1016 =
TAF LEBA 291400Z 2915/2924 29005KT CAVOK LEJR 291500Z 23010KT 9999 SCT040 19/12 Q1017 =
TAF LEJR 291100Z 2912/3012 10006KT 9999 FEW015 SCT020 TX17/2914Z TN12/3006Z GEML 291500Z 07007KT 020V110 CAVOK 17/08 Q1017 =
TAF GEML 291400Z 2915/3015 08006KT 9999 FEW015 TX19/3014Z TN12/3006Z LXGB 291450Z 10007KT 9999 FEW024 BKN200 17/11 Q1017 =
TAF LXGB 291254Z 2915/2921 09005KT 9999 FEW020

TAFOR:


TAF LEMG 291100Z 2912/3012 14008KT CAVOK TX18/2913Z TN11/3006Z BECMG 2919/2921 29006KT BECMG 3010/3012 16006KT =
TAF LEGR 291400Z 2915/3015 29006KT 9999 FEW040 TX18/2915Z TN06/3007Z =
TAF LEZL 291400Z 2915/3015 22008KT 9999 FEW040 TX21/2915Z TN11/3007Z TEMPO 3002/3009 3000 BR BKN006 =
TAF LEAM 291400Z 2915/3015 22010KT 9999 FEW040 TX19/3014Z TN11/3006Z BECMG 2919/2921 34006KT BECMG 3008/3009 22010KT =
TAF LEBA 291400Z 2915/2924 29005KT CAVOK =
TAF LEJR 291100Z 2912/3012 10006KT 9999 FEW015 SCT020 TX17/2914Z TN12/3006Z =
TAF GEML 291400Z 2915/3015 08006KT 9999 FEW015 TX19/3014Z TN12/3006Z =
TAF LXGB 291254Z 2915/2921 09005KT 9999 FEW020 =

Recuerde que, aunque regularmente actualizada, la información meteorológica aquí presentada no debe ser utilizada para la planificación de vuelos. Si lo desea, puede consultar la información meteorológica adecuada, tanto de aeródromos como en ruta, por las vías oficialmente establecidas en la legislación -> AQUí

Utilizamos "cookies" propias y de terceros para analizar nuestros servicios, medir las audiencias, personalizar el contenido que ofrecemos y mostrar información adaptada a sus intereses mediante la obtención de los datos necesarios para perfilar sus hábitos de navegación e inferir grupos de interés, siempre de modo anónimo. Si continúa utilizando el sitio web AEROCLUBMALAGA.COM, significa que acepta sus términos y condiciones y el uso de "cookies" al utilizar el sitio web y nuestros servicios. Asimismo, podemos utilizar fuentes de datos externas para elaborar estos grupos de interés, así compartir los análisis de navegación y los grupos de interés inferidos con terceros con el objetivo de personalizar los contenidos. Para obtener más información sobre las cookies que utilizamos y cómo eliminarlas, consulte nuestra política de privacidad.

Acepto las cookies de esta página web.
EU Cookie Directive plugin by www.channeldigital.co.uk